createdAt,value
2023-03-26T00:00:10.513Z,94.00
2023-03-26T00:03:05.245Z,94.20
2023-03-26T00:06:08.861Z,94.40
2023-03-26T00:09:03.080Z,94.50
2023-03-26T00:11:57.913Z,94.60
2023-03-26T00:14:52.916Z,94.80
2023-03-26T00:17:51.191Z,95.00
2023-03-26T00:20:46.657Z,95.10
2023-03-26T00:23:41.223Z,95.20
2023-03-26T00:26:36.905Z,95.30
2023-03-26T00:29:34.562Z,95.20
2023-03-26T00:32:30.904Z,95.10
2023-03-26T00:35:25.306Z,95.00
2023-03-26T00:38:19.468Z,94.60
2023-03-26T00:41:27.138Z,94.40
2023-03-26T00:44:22.020Z,94.60
2023-03-26T00:47:16.289Z,94.70
2023-03-26T00:50:16.553Z,95.10
2023-03-26T00:53:13.334Z,95.20
2023-03-26T00:56:08.836Z,94.80
2023-03-26T00:59:03.289Z,93.90
2023-03-26T01:01:59.527Z,93.70
2023-03-26T01:05:03.981Z,93.50
2023-03-26T01:07:58.563Z,93.30
2023-03-26T01:10:54.333Z,93.20
2023-03-26T01:14:22.776Z,92.90
2023-03-26T01:17:17.596Z,93.00
2023-03-26T01:20:31.723Z,92.90
2023-03-26T01:23:31.848Z,93.10
2023-03-26T01:26:54.036Z,92.70
2023-03-26T01:30:14.355Z,91.90
2023-03-26T01:33:35.079Z,91.60
2023-03-26T01:37:05.046Z,89.90
2023-03-26T01:40:08.370Z,88.80
2023-03-26T01:43:27.673Z,88.50
2023-03-26T01:46:25.355Z,86.80
2023-03-26T01:49:20.995Z,87.00
2023-03-26T01:52:23.572Z,87.00
2023-03-26T01:55:18.502Z,85.90
2023-03-26T01:58:21.014Z,85.60
2023-03-26T02:01:46.426Z,85.40
2023-03-26T02:05:03.321Z,83.80
2023-03-26T02:08:06.865Z,81.60
2023-03-26T02:11:05.541Z,81.40
2023-03-26T02:14:00.827Z,79.20
2023-03-26T02:16:55.143Z,78.10
2023-03-26T02:19:49.385Z,79.50
2023-03-26T02:22:46.980Z,80.20
2023-03-26T02:25:43.170Z,79.50
2023-03-26T02:28:37.471Z,78.80
2023-03-26T02:31:31.838Z,79.30
2023-03-26T02:34:26.077Z,79.20
2023-03-26T02:37:20.422Z,78.80
2023-03-26T02:40:15.307Z,78.00
2023-03-26T02:43:09.940Z,76.90
2023-03-26T02:46:04.285Z,77.20
2023-03-26T02:48:58.482Z,77.20
2023-03-26T02:51:57.436Z,75.40
2023-03-26T02:54:51.816Z,74.40
2023-03-26T02:57:46.000Z,73.80
2023-03-26T03:00:40.457Z,73.40
2023-03-26T03:03:35.796Z,75.10
2023-03-26T03:06:32.256Z,74.40
2023-03-26T03:09:26.985Z,72.30
2023-03-26T03:12:21.224Z,72.60
2023-03-26T03:15:15.563Z,73.00
2023-03-26T03:18:09.876Z,73.10
2023-03-26T03:21:04.559Z,73.20
2023-03-26T03:23:59.997Z,73.80
2023-03-26T03:26:58.002Z,74.60
2023-03-26T03:29:54.996Z,75.20
2023-03-26T03:32:49.556Z,75.40
2023-03-26T03:35:44.159Z,75.30
2023-03-26T03:38:43.167Z,75.90
2023-03-26T03:41:37.388Z,77.70
2023-03-26T03:44:31.933Z,79.10
2023-03-26T03:47:26.193Z,80.00
2023-03-26T03:50:20.473Z,81.50
2023-03-26T03:53:17.211Z,81.70
2023-03-26T03:56:11.647Z,82.90
2023-03-26T03:59:06.280Z,84.00
2023-03-26T04:02:00.505Z,84.90
2023-03-26T04:04:55.569Z,85.30
2023-03-26T04:07:49.931Z,86.10
2023-03-26T04:10:45.246Z,85.20
2023-03-26T04:13:39.711Z,83.20
2023-03-26T04:16:34.240Z,82.80
2023-03-26T04:19:28.760Z,82.80
2023-03-26T04:22:23.623Z,82.80
2023-03-26T04:25:18.465Z,84.20
2023-03-26T04:28:23.847Z,83.90
2023-03-26T04:31:30.335Z,83.80
2023-03-26T04:34:26.450Z,83.70
2023-03-26T04:37:45.570Z,83.80
2023-03-26T04:40:40.376Z,83.80
2023-03-26T04:43:37.888Z,84.20
2023-03-26T04:46:34.734Z,85.90
2023-03-26T04:49:29.000Z,87.00
2023-03-26T04:52:23.595Z,89.60
2023-03-26T04:55:32.950Z,90.10
2023-03-26T04:58:34.098Z,91.00
2023-03-26T05:01:32.048Z,91.60
2023-03-26T05:04:27.841Z,92.20
2023-03-26T05:07:25.007Z,92.50
2023-03-26T05:10:21.854Z,92.60
2023-03-26T05:13:16.071Z,93.00
2023-03-26T05:16:11.275Z,93.40
2023-03-26T05:19:05.624Z,93.70
2023-03-26T05:21:59.950Z,94.20
2023-03-26T05:24:54.078Z,94.30
2023-03-26T05:27:49.028Z,94.70
2023-03-26T05:30:45.856Z,94.70
2023-03-26T05:33:40.881Z,94.80
2023-03-26T05:36:35.188Z,94.70
2023-03-26T05:39:31.055Z,94.20
2023-03-26T05:42:25.421Z,94.10
2023-03-26T05:45:20.163Z,94.00
2023-03-26T05:48:14.340Z,94.10
2023-03-26T05:51:09.298Z,94.40
2023-03-26T05:54:03.500Z,94.50
2023-03-26T05:56:58.639Z,94.60
2023-03-26T05:59:52.823Z,94.60
2023-03-26T06:02:48.342Z,94.90
2023-03-26T06:05:44.307Z,95.00
2023-03-26T06:08:38.607Z,95.30
2023-03-26T06:11:33.860Z,95.30
2023-03-26T06:14:28.328Z,95.40
2023-03-26T06:17:22.569Z,95.50
2023-03-26T06:20:17.716Z,95.50
2023-03-26T06:23:11.997Z,95.50
2023-03-26T06:26:06.417Z,95.60
2023-03-26T06:29:00.891Z,95.80
2023-03-26T06:31:55.745Z,95.90
2023-03-26T06:34:51.244Z,96.30
2023-03-26T06:37:45.544Z,96.30
2023-03-26T06:40:40.180Z,96.40
2023-03-26T06:43:34.987Z,96.90
2023-03-26T06:46:29.574Z,97.10
2023-03-26T06:49:23.872Z,97.20
2023-03-26T06:52:18.166Z,97.30
2023-03-26T06:55:13.049Z,97.30
2023-03-26T06:58:07.325Z,97.60
2023-03-26T07:01:01.809Z,97.80
2023-03-26T07:03:56.044Z,98.00
2023-03-26T07:06:54.440Z,98.10
2023-03-26T07:09:49.311Z,98.10
2023-03-26T07:12:44.035Z,98.30
2023-03-26T07:15:38.439Z,98.40
2023-03-26T07:18:32.667Z,98.10
2023-03-26T07:21:27.447Z,97.90
2023-03-26T07:24:22.044Z,97.80
2023-03-26T07:27:19.263Z,97.80
2023-03-26T07:30:25.658Z,97.90
2023-03-26T07:33:41.273Z,98.00
2023-03-26T07:36:58.305Z,97.90
2023-03-26T07:40:11.577Z,97.80
2023-03-26T07:43:25.703Z,97.70
2023-03-26T07:46:25.272Z,97.80
2023-03-26T07:49:21.523Z,97.90
2023-03-26T07:52:15.903Z,98.00
2023-03-26T07:55:14.049Z,98.10
2023-03-26T07:58:29.661Z,98.10
2023-03-26T08:01:58.164Z,98.10
2023-03-26T08:05:20.049Z,98.30
2023-03-26T08:08:42.840Z,98.40
2023-03-26T08:12:00.377Z,98.70
2023-03-26T08:15:13.527Z,98.80
2023-03-26T08:18:28.545Z,98.80
2023-03-26T08:21:30.294Z,99.00
2023-03-26T08:24:37.765Z,99.10
2023-03-26T08:27:39.308Z,99.40
2023-03-26T08:30:34.048Z,99.30
2023-03-26T08:33:30.002Z,99.40
2023-03-26T08:36:24.180Z,99.50
2023-03-26T08:39:18.360Z,99.70
2023-03-26T08:42:27.887Z,99.80
2023-03-26T08:45:52.614Z,99.90
2023-03-26T08:49:11.081Z,99.90
2023-03-26T08:52:11.627Z,99.90
2023-03-26T08:55:33.393Z,99.90
2023-03-26T08:58:52.089Z,99.90
2023-03-26T09:01:49.162Z,99.90
2023-03-26T09:05:08.295Z,99.90
2023-03-26T09:08:11.633Z,99.90
2023-03-26T09:11:42.612Z,99.90
2023-03-26T09:15:06.154Z,99.90
2023-03-26T09:18:18.485Z,99.90
2023-03-26T09:21:15.548Z,99.80
2023-03-26T09:24:25.524Z,98.90
2023-03-26T09:27:44.235Z,96.70
2023-03-26T09:30:45.164Z,96.60
2023-03-26T09:33:53.357Z,96.00
2023-03-26T09:36:58.559Z,94.80
2023-03-26T09:40:19.862Z,94.20
2023-03-26T09:43:23.217Z,94.10
2023-03-26T09:46:25.585Z,92.50
2023-03-26T09:49:40.849Z,92.30
2023-03-26T09:52:58.359Z,92.30
2023-03-26T09:56:11.789Z,92.20
2023-03-26T09:59:05.949Z,91.20
2023-03-26T10:02:03.122Z,91.10
2023-03-26T10:05:25.494Z,90.20
2023-03-26T10:08:32.352Z,90.50
2023-03-26T10:11:53.016Z,90.40
2023-03-26T10:15:20.710Z,90.10
2023-03-26T10:18:27.445Z,90.00
2023-03-26T10:21:51.769Z,89.40
2023-03-26T10:25:13.941Z,87.10
2023-03-26T10:28:26.872Z,85.70
2023-03-26T10:31:45.178Z,84.00
2023-03-26T10:34:57.213Z,83.10
2023-03-26T10:37:57.550Z,83.00
2023-03-26T10:41:11.836Z,80.50
2023-03-26T10:44:15.070Z,79.40
2023-03-26T10:47:17.997Z,80.00
2023-03-26T10:50:30.640Z,78.40
2023-03-26T10:53:32.500Z,76.80
2023-03-26T10:56:47.832Z,76.60
2023-03-26T10:59:42.235Z,74.50
2023-03-26T11:02:55.848Z,72.20
2023-03-26T11:06:05.271Z,73.40
2023-03-26T11:09:25.847Z,70.70
2023-03-26T11:12:26.991Z,70.70
2023-03-26T11:16:05.843Z,70.60
2023-03-26T11:19:46.190Z,71.60
2023-03-26T11:23:04.884Z,69.50
2023-03-26T11:26:11.474Z,68.90
2023-03-26T11:29:31.315Z,67.80
2023-03-26T11:32:37.353Z,69.40
2023-03-26T11:35:40.955Z,70.10
2023-03-26T11:38:48.749Z,71.30
2023-03-26T11:41:43.065Z,72.40
2023-03-26T11:44:42.056Z,74.20
2023-03-26T11:47:44.240Z,73.80
2023-03-26T11:50:45.566Z,73.50
2023-03-26T11:53:40.908Z,74.40
2023-03-26T11:56:35.041Z,75.00
2023-03-26T11:59:55.390Z,74.90
2023-03-26T12:02:50.988Z,75.70
2023-03-26T12:05:59.429Z,75.90
2023-03-26T12:08:53.720Z,77.70
2023-03-26T12:11:50.532Z,79.00
2023-03-26T12:14:45.401Z,80.60
2023-03-26T12:17:41.422Z,80.30
2023-03-26T12:20:38.191Z,79.90
2023-03-26T12:23:42.990Z,79.60
2023-03-26T12:26:38.818Z,77.30
2023-03-26T12:29:35.565Z,76.30
2023-03-26T12:32:46.207Z,75.80
2023-03-26T12:35:42.054Z,76.40
2023-03-26T12:38:38.402Z,74.40
2023-03-26T12:44:42.292Z,75.30
2023-03-26T12:45:00.517Z,75.00
2023-03-26T12:48:03.506Z,74.20
2023-03-26T12:51:06.294Z,74.30
2023-03-26T12:54:16.278Z,73.50
2023-03-26T12:57:25.902Z,74.20
2023-03-26T13:00:24.054Z,73.40
2023-03-26T13:03:31.958Z,73.10
2023-03-26T13:06:31.562Z,73.80
2023-03-26T13:09:45.655Z,74.50
2023-03-26T13:12:44.040Z,73.80
2023-03-26T13:15:49.633Z,73.20
2023-03-26T13:19:11.115Z,73.20
2023-03-26T13:22:33.104Z,72.90
2023-03-26T13:25:45.774Z,72.80
2023-03-26T13:29:12.426Z,71.90
2023-03-26T13:32:22.085Z,72.00
2023-03-26T13:35:38.710Z,72.00
2023-03-26T13:39:08.704Z,70.90
2023-03-26T13:42:41.813Z,70.60
2023-03-26T13:46:07.716Z,70.00
2023-03-26T13:49:08.111Z,68.60
2023-03-26T13:52:15.445Z,68.80
2023-03-26T13:55:38.687Z,67.90
2023-03-26T13:59:08.945Z,66.80
2023-03-26T14:02:12.275Z,65.60
2023-03-26T14:05:13.556Z,67.00
2023-03-26T14:08:32.819Z,65.30
2023-03-26T14:11:36.153Z,63.50
2023-03-26T14:14:39.373Z,63.60
2023-03-26T14:17:59.104Z,62.50
2023-03-26T14:21:27.811Z,61.60
2023-03-26T14:25:00.398Z,61.40
2023-03-26T14:28:12.878Z,60.70
2023-03-26T14:31:30.508Z,60.00
2023-03-26T14:34:31.372Z,59.60
2023-03-26T14:37:59.749Z,59.00
2023-03-26T14:41:03.834Z,59.20
2023-03-26T14:44:48.202Z,58.60
2023-03-26T14:48:01.020Z,57.70
2023-03-26T14:50:55.888Z,57.70
2023-03-26T14:53:57.032Z,57.50
2023-03-26T14:57:14.106Z,58.20
2023-03-26T15:00:29.904Z,57.80
2023-03-26T15:03:27.172Z,57.20
2023-03-26T15:06:38.275Z,57.60
2023-03-26T15:10:05.991Z,57.90
2023-03-26T15:13:06.524Z,58.00
2023-03-26T15:16:10.223Z,58.10
2023-03-26T15:19:04.362Z,57.70
2023-03-26T15:22:26.187Z,57.80
2023-03-26T15:25:38.944Z,58.00
2023-03-26T15:28:48.431Z,58.20
2023-03-26T15:32:01.325Z,57.70
2023-03-26T15:35:21.976Z,57.70
2023-03-26T15:38:37.418Z,57.50
2023-03-26T15:41:54.730Z,58.50
2023-03-26T15:45:26.029Z,58.50
2023-03-26T15:48:29.282Z,58.70
2023-03-26T15:51:46.809Z,58.60
2023-03-26T15:55:30.140Z,59.00
2023-03-26T15:58:28.084Z,59.70
2023-03-26T16:02:20.607Z,59.90
2023-03-26T16:05:41.886Z,59.90
2023-03-26T16:08:54.289Z,59.80
2023-03-26T16:11:56.028Z,59.90
2023-03-26T16:15:10.652Z,59.80
2023-03-26T16:18:16.779Z,59.60
2023-03-26T16:21:32.930Z,59.40
2023-03-26T16:24:34.487Z,59.70
2023-03-26T16:27:35.177Z,60.10
2023-03-26T16:30:34.859Z,60.20
2023-03-26T16:33:40.104Z,60.70
2023-03-26T16:36:44.916Z,61.20
2023-03-26T16:39:45.455Z,61.70
2023-03-26T16:42:51.209Z,61.90
2023-03-26T16:46:16.693Z,62.30
2023-03-26T16:49:13.955Z,62.10
2023-03-26T16:52:08.725Z,61.80
2023-03-26T16:55:27.725Z,61.80
2023-03-26T16:58:32.729Z,62.80
2023-03-26T17:01:28.448Z,65.50
2023-03-26T17:04:26.096Z,68.90
2023-03-26T17:07:42.818Z,72.70
2023-03-26T17:11:01.954Z,74.30
2023-03-26T17:14:24.123Z,77.80
2023-03-26T17:17:37.986Z,80.40
2023-03-26T17:21:00.907Z,82.40
2023-03-26T17:24:18.668Z,83.10
2023-03-26T17:27:37.493Z,84.80
2023-03-26T17:30:46.800Z,86.90
2023-03-26T17:33:41.412Z,88.80
2023-03-26T17:36:47.082Z,90.20
2023-03-26T17:39:41.241Z,91.10
2023-03-26T17:42:38.657Z,91.50
2023-03-26T17:45:36.798Z,92.10
2023-03-26T17:48:36.655Z,92.60
2023-03-26T17:51:51.875Z,93.10
2023-03-26T17:54:56.596Z,94.00
2023-03-26T17:57:58.685Z,94.20
2023-03-26T18:00:59.951Z,94.80
2023-03-26T18:03:58.988Z,95.30
2023-03-26T18:07:30.708Z,95.70
2023-03-26T18:11:01.022Z,96.30
2023-03-26T18:14:07.361Z,96.90
2023-03-26T18:17:03.297Z,97.20
2023-03-26T18:20:07.693Z,97.30
2023-03-26T18:23:11.538Z,97.50
2023-03-26T18:26:37.886Z,97.70
2023-03-26T18:29:34.827Z,97.90
2023-03-26T18:32:34.666Z,97.90
2023-03-26T18:35:37.562Z,98.10
2023-03-26T18:38:35.921Z,98.50
2023-03-26T18:41:41.555Z,98.70
2023-03-26T18:44:38.128Z,98.90
2023-03-26T18:47:33.042Z,98.70
2023-03-26T18:50:39.812Z,99.10
2023-03-26T18:53:43.101Z,99.70
2023-03-26T18:56:42.845Z,99.90
2023-03-26T18:59:41.202Z,99.90
2023-03-26T19:02:35.821Z,99.90
2023-03-26T19:05:30.688Z,99.90
2023-03-26T19:08:26.944Z,99.90
2023-03-26T19:11:21.254Z,99.90
2023-03-26T19:14:20.983Z,99.90
2023-03-26T19:17:15.372Z,99.90
2023-03-26T19:20:20.716Z,99.90
2023-03-26T19:23:29.009Z,99.90
2023-03-26T19:26:23.455Z,99.90
2023-03-26T19:29:26.106Z,99.90
2023-03-26T19:32:33.376Z,99.90
2023-03-26T19:35:27.578Z,99.90
2023-03-26T19:38:28.291Z,99.90
2023-03-26T19:41:26.871Z,99.90
2023-03-26T19:44:21.639Z,99.90
2023-03-26T19:47:48.602Z,99.90
2023-03-26T19:51:07.241Z,99.90
2023-03-26T19:54:04.323Z,99.90
2023-03-26T19:56:58.436Z,99.90
2023-03-26T19:59:53.713Z,99.90
2023-03-26T20:02:48.297Z,99.90
2023-03-26T20:05:42.887Z,99.90
2023-03-26T20:08:37.112Z,99.90
2023-03-26T20:11:39.106Z,99.90
2023-03-26T20:14:33.737Z,99.90
2023-03-26T20:17:28.310Z,99.90
2023-03-26T20:20:26.802Z,99.90
2023-03-26T20:23:21.006Z,99.90
2023-03-26T20:26:17.838Z,99.90
2023-03-26T20:29:12.785Z,99.90
2023-03-26T20:32:11.235Z,99.90
2023-03-26T20:35:17.092Z,99.90
2023-03-26T20:38:11.515Z,99.90
2023-03-26T20:41:05.670Z,99.90
2023-03-26T20:43:59.839Z,99.90
2023-03-26T20:46:54.439Z,99.90
2023-03-26T20:49:48.610Z,99.90
2023-03-26T20:52:45.132Z,99.90
2023-03-26T20:55:45.136Z,99.90
2023-03-26T20:58:40.324Z,99.90
2023-03-26T21:01:34.749Z,99.90
2023-03-26T21:04:29.309Z,99.90
2023-03-26T21:07:23.444Z,99.90
2023-03-26T21:10:18.860Z,99.90
2023-03-26T21:13:48.086Z,99.90
2023-03-26T21:16:42.449Z,99.90
2023-03-26T21:19:36.820Z,99.90
2023-03-26T21:23:05.760Z,99.90
2023-03-26T21:26:08.290Z,99.90
2023-03-26T21:29:03.516Z,99.90
2023-03-26T21:31:58.308Z,99.90
2023-03-26T21:34:58.838Z,99.90
2023-03-26T21:37:55.398Z,99.90
2023-03-26T21:40:58.323Z,99.90
2023-03-26T21:43:53.700Z,99.90
2023-03-26T21:46:49.588Z,99.90
2023-03-26T21:49:44.258Z,99.90
2023-03-26T21:52:47.887Z,99.90
2023-03-26T21:56:03.747Z,99.90
2023-03-26T21:59:14.083Z,99.90
2023-03-26T22:02:33.570Z,99.90
2023-03-26T22:05:57.050Z,99.90
2023-03-26T22:08:51.276Z,99.90
2023-03-26T22:11:45.653Z,99.90
2023-03-26T22:14:40.298Z,99.90
2023-03-26T22:17:34.546Z,99.90
2023-03-26T22:20:29.378Z,99.90
2023-03-26T22:23:24.024Z,99.90
2023-03-26T22:26:18.113Z,99.90
2023-03-26T22:29:12.442Z,99.90
2023-03-26T22:32:06.865Z,99.90
2023-03-26T22:35:01.057Z,99.90
2023-03-26T22:38:00.841Z,99.90
2023-03-26T22:40:59.296Z,99.90
2023-03-26T22:43:56.835Z,99.90
2023-03-26T22:46:52.512Z,99.90
2023-03-26T22:49:47.013Z,99.90
2023-03-26T22:52:42.138Z,99.90
2023-03-26T22:55:36.240Z,99.90
2023-03-26T22:58:31.036Z,99.90
2023-03-26T23:01:26.212Z,99.90
2023-03-26T23:04:31.689Z,99.90
2023-03-26T23:07:26.437Z,99.90
2023-03-26T23:10:20.627Z,99.90
2023-03-26T23:13:14.732Z,99.90
2023-03-26T23:16:11.240Z,99.90
2023-03-26T23:19:06.082Z,99.90
2023-03-26T23:22:00.193Z,99.90
2023-03-26T23:24:54.616Z,99.90
2023-03-26T23:27:49.642Z,99.90
2023-03-26T23:30:48.820Z,99.90
2023-03-26T23:33:47.349Z,99.90
2023-03-26T23:36:42.945Z,99.90
2023-03-26T23:39:37.360Z,99.90
2023-03-26T23:42:31.462Z,99.90
2023-03-26T23:45:25.616Z,99.90
2023-03-26T23:48:25.805Z,99.90
2023-03-26T23:51:23.574Z,99.90
2023-03-26T23:54:17.931Z,99.90
2023-03-26T23:57:12.201Z,99.90
